createdAt,value
2022-10-11T00:01:26.253Z,3.81
2022-10-11T00:03:52.961Z,3.86
2022-10-11T00:06:19.641Z,3.87
2022-10-11T00:08:46.180Z,3.88
2022-10-11T00:11:12.592Z,3.88
2022-10-11T00:13:39.160Z,3.88
2022-10-11T00:16:12.664Z,3.89
2022-10-11T00:18:39.712Z,3.88
2022-10-11T00:21:09.643Z,3.89
2022-10-11T00:23:37.195Z,3.91
2022-10-11T00:26:06.700Z,3.92
2022-10-11T00:28:34.869Z,3.93
2022-10-11T00:31:02.188Z,3.94
2022-10-11T00:33:29.161Z,3.96
2022-10-11T00:35:55.784Z,3.99
2022-10-11T00:38:22.354Z,4.02
2022-10-11T00:40:48.921Z,4.04
2022-10-11T00:43:18.865Z,4.04
2022-10-11T00:45:57.459Z,4.04
2022-10-11T00:48:40.736Z,4.03
2022-10-11T00:51:33.863Z,4.03
2022-10-11T00:54:02.245Z,4.03
2022-10-11T00:56:36.409Z,4.03
2022-10-11T00:59:08.787Z,4.02
2022-10-11T01:01:35.409Z,4.00
2022-10-11T01:04:02.640Z,4.00
2022-10-11T01:06:29.583Z,3.98
2022-10-11T01:08:56.435Z,3.98
2022-10-11T01:11:25.477Z,3.96
2022-10-11T01:14:11.629Z,3.95
2022-10-11T01:17:30.838Z,3.94
2022-10-11T01:20:30.737Z,3.93
2022-10-11T01:23:28.291Z,3.92
2022-10-11T01:26:13.373Z,3.91
2022-10-11T01:29:04.903Z,3.92
2022-10-11T01:31:34.111Z,3.91
2022-10-11T01:34:11.041Z,3.90
2022-10-11T01:36:49.095Z,3.89
2022-10-11T01:39:32.839Z,3.89
2022-10-11T01:42:03.391Z,3.90
2022-10-11T01:44:31.760Z,3.91
2022-10-11T01:46:58.399Z,3.92
2022-10-11T01:49:24.808Z,3.91
2022-10-11T01:51:55.168Z,3.92
2022-10-11T01:55:03.951Z,3.91
2022-10-11T01:57:43.951Z,3.89
2022-10-11T02:00:22.229Z,3.87
2022-10-11T02:03:16.153Z,3.86
2022-10-11T02:05:55.492Z,3.85
2022-10-11T02:08:34.333Z,3.82
2022-10-11T02:11:06.860Z,3.80
2022-10-11T02:13:44.322Z,3.78
2022-10-11T02:16:16.498Z,3.77
2022-10-11T02:18:47.618Z,3.75
2022-10-11T02:21:18.354Z,3.72
2022-10-11T02:23:53.625Z,3.69
2022-10-11T02:26:21.972Z,3.65
2022-10-11T02:28:51.771Z,3.62
2022-10-11T02:31:20.589Z,3.59
2022-10-11T02:34:11.855Z,3.57
2022-10-11T02:36:51.129Z,3.55
2022-10-11T02:39:25.921Z,3.53
2022-10-11T02:41:56.011Z,3.51
2022-10-11T02:44:43.843Z,3.52
2022-10-11T02:47:11.508Z,3.52
2022-10-11T02:49:38.355Z,3.53
2022-10-11T02:52:06.636Z,3.54
2022-10-11T02:54:33.232Z,3.57
2022-10-11T02:56:59.722Z,3.59
2022-10-11T02:59:26.267Z,3.61
2022-10-11T03:01:52.889Z,3.62
2022-10-11T03:04:19.497Z,3.63
2022-10-11T03:06:46.090Z,3.64
2022-10-11T03:09:12.636Z,3.65
2022-10-11T03:11:39.168Z,3.66
2022-10-11T03:14:05.912Z,3.68
2022-10-11T03:16:32.452Z,3.69
2022-10-11T03:18:58.923Z,3.70
2022-10-11T03:21:25.457Z,3.71
2022-10-11T03:23:52.071Z,3.72
2022-10-11T03:26:18.620Z,3.72
2022-10-11T03:28:45.292Z,3.71
2022-10-11T03:31:11.779Z,3.69
2022-10-11T03:33:38.472Z,3.67
2022-10-11T03:36:05.888Z,3.65
2022-10-11T03:38:33.357Z,3.65
2022-10-11T03:40:59.774Z,3.64
2022-10-11T03:43:26.337Z,3.61
2022-10-11T03:45:52.978Z,3.58
2022-10-11T03:48:19.543Z,3.56
2022-10-11T03:50:46.167Z,3.54
2022-10-11T03:53:12.591Z,3.52
2022-10-11T03:55:39.975Z,3.51
2022-10-11T03:58:07.526Z,3.51
2022-10-11T04:00:34.803Z,3.48
2022-10-11T04:03:01.832Z,3.46
2022-10-11T04:05:28.371Z,3.43
2022-10-11T04:07:54.817Z,3.42
2022-10-11T04:10:21.563Z,3.42
2022-10-11T04:12:48.095Z,3.42
2022-10-11T04:15:14.564Z,3.42
2022-10-11T04:17:41.687Z,3.43
2022-10-11T04:20:09.401Z,3.42
2022-10-11T04:22:36.011Z,3.42
2022-10-11T04:25:02.538Z,3.42
2022-10-11T04:27:29.690Z,3.42
2022-10-11T04:29:56.233Z,3.41
2022-10-11T04:32:22.773Z,3.42
2022-10-11T04:34:49.291Z,3.41
2022-10-11T04:37:15.754Z,3.42
2022-10-11T04:39:42.195Z,3.44
2022-10-11T04:42:08.796Z,3.45
2022-10-11T04:44:35.484Z,3.48
2022-10-11T04:47:02.020Z,3.51
2022-10-11T04:49:28.672Z,3.53
2022-10-11T04:51:55.204Z,3.57
2022-10-11T04:54:21.949Z,3.60
2022-10-11T04:56:48.541Z,3.63
2022-10-11T04:59:15.130Z,3.67
2022-10-11T05:01:41.912Z,3.71
2022-10-11T05:04:08.824Z,3.76
2022-10-11T05:06:35.298Z,3.84
2022-10-11T05:09:01.806Z,3.92
2022-10-11T05:11:28.694Z,3.98
2022-10-11T05:13:55.111Z,4.06
2022-10-11T05:16:21.638Z,4.14
2022-10-11T05:18:48.692Z,4.22
2022-10-11T05:21:19.480Z,4.31
2022-10-11T05:23:47.709Z,4.39
2022-10-11T05:26:15.029Z,4.47
2022-10-11T05:28:41.698Z,4.56
2022-10-11T05:31:08.354Z,4.65
2022-10-11T05:33:34.893Z,4.74
2022-10-11T05:36:01.665Z,4.85
2022-10-11T05:38:28.581Z,4.95
2022-10-11T05:40:55.229Z,5.02
2022-10-11T05:43:21.768Z,5.09
2022-10-11T05:45:49.434Z,5.16
2022-10-11T05:48:15.973Z,5.21
2022-10-11T05:50:42.516Z,5.25
2022-10-11T05:53:09.369Z,5.30
2022-10-11T05:55:43.383Z,5.38
2022-10-11T05:58:15.007Z,5.45
2022-10-11T06:00:41.490Z,5.53
2022-10-11T06:03:09.022Z,5.62
2022-10-11T06:05:36.000Z,5.72
2022-10-11T06:08:04.207Z,5.82
2022-10-11T06:10:30.718Z,5.92
2022-10-11T06:12:57.568Z,6.05
2022-10-11T06:15:24.921Z,6.18
2022-10-11T06:17:51.464Z,6.31
2022-10-11T06:20:17.958Z,6.48
2022-10-11T06:22:44.421Z,6.63
2022-10-11T06:25:10.937Z,6.78
2022-10-11T06:27:37.420Z,6.94
2022-10-11T06:30:05.294Z,7.12
2022-10-11T06:32:32.088Z,7.30
2022-10-11T06:34:58.683Z,7.45
2022-10-11T06:37:25.226Z,7.59
2022-10-11T06:39:52.072Z,7.70
2022-10-11T06:42:18.481Z,7.77
2022-10-11T06:44:44.886Z,7.76
2022-10-11T06:47:11.390Z,7.83
2022-10-11T06:49:37.829Z,7.89
2022-10-11T06:52:05.059Z,7.91
2022-10-11T06:54:31.518Z,7.95
2022-10-11T06:56:57.964Z,8.03
2022-10-11T06:59:24.509Z,8.08
2022-10-11T07:01:51.256Z,8.12
2022-10-11T07:04:17.792Z,8.18
2022-10-11T07:06:44.233Z,8.27
2022-10-11T07:09:10.771Z,8.35
2022-10-11T07:11:37.412Z,8.42
2022-10-11T07:14:06.361Z,8.49
2022-10-11T07:16:34.589Z,8.56
2022-10-11T07:19:02.568Z,8.60
2022-10-11T07:21:30.850Z,8.69
2022-10-11T07:23:57.346Z,8.80
2022-10-11T07:26:23.952Z,8.89
2022-10-11T07:28:50.496Z,8.94
2022-10-11T07:31:20.233Z,9.10
2022-10-11T07:33:46.725Z,9.30
2022-10-11T07:36:14.194Z,9.51
2022-10-11T07:38:42.659Z,9.72
2022-10-11T07:41:10.188Z,9.94
2022-10-11T07:43:37.585Z,10.17
2022-10-11T07:46:05.938Z,10.41
2022-10-11T07:48:34.553Z,10.63
2022-10-11T07:51:17.400Z,10.87
2022-10-11T07:53:46.807Z,11.18
2022-10-11T07:56:15.476Z,11.51
2022-10-11T07:58:42.879Z,11.80
2022-10-11T08:01:11.470Z,12.03
2022-10-11T08:03:38.726Z,12.26
2022-10-11T08:06:08.784Z,12.45
2022-10-11T08:08:36.910Z,12.62
2022-10-11T08:11:04.079Z,12.69
2022-10-11T08:13:31.113Z,12.67
2022-10-11T08:15:58.080Z,12.68
2022-10-11T08:18:24.734Z,12.71
2022-10-11T08:20:51.261Z,12.76
2022-10-11T08:23:18.884Z,12.77
2022-10-11T08:25:47.400Z,12.87
2022-10-11T08:28:14.730Z,13.06
2022-10-11T08:30:47.887Z,13.24
2022-10-11T08:33:14.366Z,13.35
2022-10-11T08:35:40.818Z,13.47
2022-10-11T08:38:07.268Z,13.73
2022-10-11T08:40:35.432Z,13.82
2022-10-11T08:43:06.424Z,13.87
2022-10-11T08:45:42.726Z,13.91
2022-10-11T08:48:23.179Z,13.98
2022-10-11T08:50:52.459Z,14.09
2022-10-11T08:53:46.464Z,14.10
2022-10-11T08:56:15.420Z,14.10
2022-10-11T08:59:00.847Z,13.94
2022-10-11T09:01:29.345Z,13.83
2022-10-11T09:03:56.785Z,13.82
2022-10-11T09:06:23.295Z,13.71
2022-10-11T09:08:54.832Z,13.54
2022-10-11T09:11:43.952Z,13.44
2022-10-11T09:15:09.033Z,13.34
2022-10-11T09:17:56.867Z,13.22
2022-10-11T09:20:48.398Z,13.21
2022-10-11T09:23:26.919Z,13.26
2022-10-11T09:25:58.892Z,13.22
2022-10-11T09:28:51.396Z,13.16
2022-10-11T09:31:17.987Z,13.16
2022-10-11T09:33:47.709Z,13.23
2022-10-11T09:36:17.125Z,13.38
2022-10-11T09:38:47.714Z,13.58
2022-10-11T09:41:22.063Z,13.74
2022-10-11T09:43:50.884Z,13.87
2022-10-11T09:46:22.215Z,14.15
2022-10-11T09:48:48.874Z,14.45
2022-10-11T09:51:20.732Z,14.78
2022-10-11T09:54:03.763Z,15.14
2022-10-11T09:56:33.071Z,15.37
2022-10-11T09:59:16.194Z,15.48
2022-10-11T10:01:42.666Z,15.65
2022-10-11T10:04:12.576Z,15.84
2022-10-11T10:06:39.658Z,15.95
2022-10-11T10:09:28.708Z,16.03
2022-10-11T10:11:57.641Z,16.04
2022-10-11T10:14:29.039Z,16.03
2022-10-11T10:17:05.476Z,16.11
2022-10-11T10:19:44.726Z,16.10
2022-10-11T10:22:22.855Z,16.01
2022-10-11T10:24:51.478Z,16.01
2022-10-11T10:27:24.076Z,15.83
2022-10-11T10:30:02.825Z,15.62
2022-10-11T10:33:05.870Z,15.24
2022-10-11T10:35:33.857Z,15.03
2022-10-11T10:38:08.959Z,14.95
2022-10-11T10:40:43.030Z,14.99
2022-10-11T10:43:13.988Z,14.95
2022-10-11T10:45:58.874Z,14.91
2022-10-11T10:49:11.624Z,15.09
2022-10-11T10:51:36.847Z,15.21
2022-10-11T10:54:19.562Z,15.35
2022-10-11T10:57:34.231Z,15.58
2022-10-11T11:00:04.969Z,15.79
2022-10-11T11:02:56.322Z,15.90
2022-10-11T11:05:39.950Z,16.01
2022-10-11T11:08:09.442Z,16.14
2022-10-11T11:11:00.199Z,16.30
2022-10-11T11:14:02.018Z,16.42
2022-10-11T11:16:37.773Z,16.54
2022-10-11T11:19:32.782Z,16.63
2022-10-11T11:22:16.125Z,16.63
2022-10-11T11:25:00.578Z,16.61
2022-10-11T11:27:39.042Z,16.67
2022-10-11T11:30:19.049Z,16.51
2022-10-11T11:33:00.341Z,16.23
2022-10-11T11:35:46.143Z,16.19
2022-10-11T11:38:29.748Z,16.38
2022-10-11T11:41:04.344Z,16.53
2022-10-11T11:43:39.714Z,16.59
2022-10-11T11:46:16.180Z,16.48
2022-10-11T11:48:43.987Z,16.54
2022-10-11T11:51:21.079Z,16.70
2022-10-11T11:53:58.572Z,16.61
2022-10-11T11:56:38.015Z,16.33
2022-10-11T11:59:40.270Z,16.09
2022-10-11T12:02:36.206Z,16.04
2022-10-11T12:05:06.717Z,16.04
2022-10-11T12:07:57.570Z,16.00
2022-10-11T12:10:30.962Z,15.92
2022-10-11T12:13:15.326Z,15.83
2022-10-11T12:16:14.764Z,15.83
2022-10-11T12:18:56.843Z,15.88
2022-10-11T12:21:26.389Z,15.90
2022-10-11T12:23:54.952Z,15.85
2022-10-11T12:26:27.528Z,15.78
2022-10-11T12:29:12.909Z,15.72
2022-10-11T12:31:42.487Z,15.74
2022-10-11T12:34:34.251Z,15.70
2022-10-11T12:37:20.797Z,15.49
2022-10-11T12:39:57.536Z,15.30
2022-10-11T12:42:31.203Z,15.18
2022-10-11T12:45:13.016Z,15.13
2022-10-11T12:47:57.046Z,15.09
2022-10-11T12:50:32.849Z,14.98
2022-10-11T12:53:12.043Z,14.97
2022-10-11T12:56:12.415Z,15.01
2022-10-11T12:58:40.525Z,15.05
2022-10-11T13:01:14.527Z,14.98
2022-10-11T13:03:44.169Z,14.98
2022-10-11T13:06:33.658Z,15.03
2022-10-11T13:09:13.617Z,15.11
2022-10-11T13:11:53.259Z,15.19
2022-10-11T13:14:23.972Z,15.30
2022-10-11T13:17:05.332Z,15.39
2022-10-11T13:19:34.538Z,15.45
2022-10-11T13:22:05.451Z,15.45
2022-10-11T13:24:37.185Z,15.37
2022-10-11T13:27:04.912Z,15.32
2022-10-11T13:29:36.163Z,15.29
2022-10-11T13:32:21.389Z,15.23
2022-10-11T13:34:52.659Z,15.16
2022-10-11T13:37:22.488Z,15.14
2022-10-11T13:39:52.207Z,15.08
2022-10-11T13:42:21.512Z,15.08
2022-10-11T13:44:48.283Z,15.11
2022-10-11T13:47:17.698Z,15.13
2022-10-11T13:49:47.073Z,15.10
2022-10-11T13:52:23.840Z,15.12
2022-10-11T13:54:53.257Z,15.16
2022-10-11T13:57:32.545Z,15.20
2022-10-11T13:59:59.542Z,15.25
2022-10-11T14:02:27.759Z,15.27
2022-10-11T14:04:54.470Z,15.25
2022-10-11T14:07:29.815Z,15.24
2022-10-11T14:09:56.661Z,15.24
2022-10-11T14:12:38.661Z,15.19
2022-10-11T14:15:38.195Z,15.11
2022-10-11T14:18:53.264Z,15.08
2022-10-11T14:21:19.810Z,14.97
2022-10-11T14:23:46.239Z,14.93
2022-10-11T14:26:18.916Z,14.92
2022-10-11T14:28:49.363Z,14.89
2022-10-11T14:31:15.851Z,14.80
2022-10-11T14:33:42.448Z,14.73
2022-10-11T14:36:09.192Z,14.69
2022-10-11T14:38:35.834Z,14.71
2022-10-11T14:41:02.269Z,14.82
2022-10-11T14:43:28.813Z,14.95
2022-10-11T14:45:55.350Z,14.98
2022-10-11T14:48:42.895Z,14.97
2022-10-11T14:51:12.756Z,14.99
2022-10-11T14:53:41.006Z,15.00
2022-10-11T14:56:07.863Z,14.92
2022-10-11T14:58:34.828Z,14.90
2022-10-11T15:01:01.414Z,14.87
2022-10-11T15:03:27.947Z,14.85
2022-10-11T15:05:54.444Z,14.80
2022-10-11T15:08:20.928Z,14.71
2022-10-11T15:10:47.467Z,14.65
2022-10-11T15:13:14.007Z,14.55
2022-10-11T15:15:40.879Z,14.40
2022-10-11T15:18:11.083Z,14.33
2022-10-11T15:20:40.987Z,14.29
2022-10-11T15:23:09.457Z,14.21
2022-10-11T15:25:36.502Z,14.12
2022-10-11T15:28:04.498Z,13.99
2022-10-11T15:30:38.530Z,13.92
2022-10-11T15:33:07.839Z,13.90
2022-10-11T15:35:34.379Z,13.78
2022-10-11T15:38:00.829Z,13.66
2022-10-11T15:40:35.382Z,13.53
2022-10-11T15:43:03.381Z,13.38
2022-10-11T15:45:30.758Z,13.31
2022-10-11T15:47:57.464Z,13.22
2022-10-11T15:50:30.818Z,13.16
2022-10-11T15:52:57.271Z,13.09
2022-10-11T15:55:23.800Z,13.02
2022-10-11T15:57:50.290Z,12.93
2022-10-11T16:00:21.368Z,12.89
2022-10-11T16:02:50.992Z,12.81
2022-10-11T16:05:22.401Z,12.71
2022-10-11T16:07:48.896Z,12.61
2022-10-11T16:10:15.536Z,12.51
2022-10-11T16:12:42.183Z,12.44
2022-10-11T16:15:10.051Z,12.39
2022-10-11T16:17:37.020Z,12.30
2022-10-11T16:20:04.766Z,12.22
2022-10-11T16:22:31.203Z,12.18
2022-10-11T16:24:57.690Z,12.12
2022-10-11T16:27:24.184Z,12.04
2022-10-11T16:29:50.935Z,11.99
2022-10-11T16:32:17.454Z,11.93
2022-10-11T16:34:44.106Z,11.87
2022-10-11T16:37:10.691Z,11.81
2022-10-11T16:39:37.176Z,11.74
2022-10-11T16:42:03.729Z,11.68
2022-10-11T16:44:30.454Z,11.60
2022-10-11T16:46:56.887Z,11.53
2022-10-11T16:49:26.362Z,11.45
2022-10-11T16:51:55.014Z,11.34
2022-10-11T16:54:22.365Z,11.21
2022-10-11T16:56:49.866Z,11.12
2022-10-11T16:59:16.795Z,11.03
2022-10-11T17:01:43.523Z,10.96
2022-10-11T17:04:10.065Z,10.92
2022-10-11T17:06:37.012Z,10.89
2022-10-11T17:09:04.342Z,10.85
2022-10-11T17:11:30.912Z,10.75
2022-10-11T17:13:57.412Z,10.67
2022-10-11T17:16:23.893Z,10.55
2022-10-11T17:18:50.637Z,10.44
2022-10-11T17:21:18.714Z,10.32
2022-10-11T17:23:46.076Z,10.18
2022-10-11T17:26:17.346Z,10.05
2022-10-11T17:28:44.188Z,9.95
2022-10-11T17:31:10.782Z,9.84
2022-10-11T17:33:37.969Z,9.73
2022-10-11T17:36:18.747Z,9.62
2022-10-11T17:38:45.586Z,9.48
2022-10-11T17:41:12.306Z,9.38
2022-10-11T17:43:38.876Z,9.30
2022-10-11T17:46:06.824Z,9.25
2022-10-11T17:48:35.572Z,9.21
2022-10-11T17:51:17.837Z,9.15
2022-10-11T17:53:46.636Z,9.08
2022-10-11T17:56:16.020Z,9.05
2022-10-11T17:58:43.301Z,9.06
2022-10-11T18:01:18.912Z,9.06
2022-10-11T18:03:55.119Z,9.02
2022-10-11T18:06:21.995Z,8.98
2022-10-11T18:08:48.709Z,8.98
2022-10-11T18:11:17.779Z,8.95
2022-10-11T18:13:48.032Z,8.91
2022-10-11T18:16:17.437Z,8.88
2022-10-11T18:18:44.234Z,8.86
2022-10-11T18:21:11.177Z,8.83
2022-10-11T18:23:38.183Z,8.80
2022-10-11T18:26:13.488Z,8.80
2022-10-11T18:28:40.934Z,8.79
2022-10-11T18:31:13.471Z,8.77
2022-10-11T18:33:41.567Z,8.74
2022-10-11T18:36:09.383Z,8.70
2022-10-11T18:38:36.564Z,8.64
2022-10-11T18:41:08.290Z,8.63
2022-10-11T18:43:35.582Z,8.63
2022-10-11T18:46:13.705Z,8.63
2022-10-11T18:48:42.290Z,8.64
2022-10-11T18:51:33.519Z,8.65
2022-10-11T18:54:00.872Z,8.65
2022-10-11T18:56:29.280Z,8.65
2022-10-11T18:58:57.439Z,8.67
2022-10-11T19:01:29.401Z,8.70
2022-10-11T19:03:58.025Z,8.74
2022-10-11T19:06:28.241Z,8.77
2022-10-11T19:09:00.136Z,8.82
2022-10-11T19:11:27.142Z,8.83
2022-10-11T19:14:03.351Z,8.83
2022-10-11T19:16:30.771Z,8.84
2022-10-11T19:18:58.031Z,8.85
2022-10-11T19:21:25.494Z,8.88
2022-10-11T19:23:52.754Z,8.90
2022-10-11T19:26:28.105Z,8.90
2022-10-11T19:29:03.661Z,8.90
2022-10-11T19:31:31.986Z,8.91
2022-10-11T19:33:59.498Z,8.89
2022-10-11T19:36:27.179Z,8.87
2022-10-11T19:38:54.626Z,8.85
2022-10-11T19:41:21.048Z,8.81
2022-10-11T19:43:47.707Z,8.78
2022-10-11T19:46:27.303Z,8.74
2022-10-11T19:49:02.618Z,8.71
2022-10-11T19:51:30.378Z,8.70
2022-10-11T19:53:58.771Z,8.68
2022-10-11T19:56:27.084Z,8.67
2022-10-11T19:58:54.441Z,8.67
2022-10-11T20:01:23.231Z,8.66
2022-10-11T20:04:01.586Z,8.68
2022-10-11T20:06:28.767Z,8.73
2022-10-11T20:09:24.019Z,8.76
2022-10-11T20:11:42.950Z,8.79
2022-10-11T20:14:09.389Z,8.81
2022-10-11T20:16:35.929Z,8.83
2022-10-11T20:19:02.573Z,8.85
2022-10-11T20:21:30.242Z,8.85
2022-10-11T20:24:00.289Z,8.85
2022-10-11T20:26:28.171Z,8.85
2022-10-11T20:28:56.174Z,8.88
2022-10-11T20:31:31.871Z,8.91
2022-10-11T20:34:00.968Z,8.91
2022-10-11T20:36:29.246Z,8.93
2022-10-11T20:38:56.812Z,8.92
2022-10-11T20:41:26.832Z,8.92
2022-10-11T20:43:56.137Z,8.91
2022-10-11T20:46:25.030Z,8.91
2022-10-11T20:48:58.908Z,8.91
2022-10-11T20:51:29.507Z,8.90
2022-10-11T20:53:59.399Z,8.88
2022-10-11T20:56:25.937Z,8.86
2022-10-11T20:58:55.485Z,8.86
2022-10-11T21:01:28.376Z,8.87
2022-10-11T21:03:57.668Z,8.87
2022-10-11T21:06:24.792Z,8.86
2022-10-11T21:08:51.217Z,8.84
2022-10-11T21:11:17.677Z,8.84
2022-10-11T21:13:44.207Z,8.83
2022-10-11T21:16:15.776Z,8.81
2022-10-11T21:18:42.576Z,8.79
2022-10-11T21:21:14.816Z,8.78
2022-10-11T21:23:42.064Z,8.77
2022-10-11T21:26:11.792Z,8.74
2022-10-11T21:28:39.464Z,8.70
2022-10-11T21:31:08.560Z,8.65
2022-10-11T21:33:36.308Z,8.60
2022-10-11T21:36:05.085Z,8.56
2022-10-11T21:38:31.832Z,8.50
2022-10-11T21:40:58.354Z,8.41
2022-10-11T21:43:24.820Z,8.32
2022-10-11T21:45:51.359Z,8.25
2022-10-11T21:48:17.847Z,8.16
2022-10-11T21:50:44.265Z,8.07
2022-10-11T21:53:10.703Z,8.01
2022-10-11T21:55:37.212Z,7.95
2022-10-11T21:58:03.652Z,7.90
2022-10-11T22:00:30.307Z,7.81
2022-10-11T22:02:56.834Z,7.73
2022-10-11T22:05:23.264Z,7.63
2022-10-11T22:07:49.812Z,7.56
2022-10-11T22:10:16.331Z,7.46
2022-10-11T22:12:42.900Z,7.38
2022-10-11T22:15:10.052Z,7.29
2022-10-11T22:17:36.595Z,7.17
2022-10-11T22:20:03.386Z,7.07
2022-10-11T22:22:29.825Z,6.99
2022-10-11T22:24:56.425Z,6.96
2022-10-11T22:27:23.007Z,6.91
2022-10-11T22:29:49.452Z,6.87
2022-10-11T22:32:15.953Z,6.83
2022-10-11T22:34:42.703Z,6.77
2022-10-11T22:37:09.243Z,6.73
2022-10-11T22:39:35.814Z,6.70
2022-10-11T22:42:02.420Z,6.65
2022-10-11T22:44:28.870Z,6.61
2022-10-11T22:46:55.396Z,6.57
2022-10-11T22:49:21.936Z,6.50
2022-10-11T22:51:48.375Z,6.45
2022-10-11T22:54:15.372Z,6.43
2022-10-11T22:56:41.831Z,6.40
2022-10-11T22:59:08.380Z,6.35
2022-10-11T23:01:34.947Z,6.29
2022-10-11T23:04:01.444Z,6.22
2022-10-11T23:06:28.026Z,6.15
2022-10-11T23:08:54.564Z,6.10
2022-10-11T23:11:20.983Z,6.05
2022-10-11T23:13:47.434Z,6.00
2022-10-11T23:16:14.288Z,5.99
2022-10-11T23:18:41.564Z,6.00
2022-10-11T23:21:08.535Z,6.01
2022-10-11T23:23:36.158Z,6.02
2022-10-11T23:26:08.656Z,6.02
2022-10-11T23:28:35.989Z,6.02
2022-10-11T23:31:08.627Z,6.03
2022-10-11T23:33:35.344Z,6.07
2022-10-11T23:36:02.382Z,6.11
2022-10-11T23:38:29.044Z,6.14
2022-10-11T23:40:55.562Z,6.16
2022-10-11T23:43:22.819Z,6.19
2022-10-11T23:45:49.359Z,6.20
2022-10-11T23:48:15.897Z,6.22
2022-10-11T23:50:42.601Z,6.23
2022-10-11T23:53:09.084Z,6.22
2022-10-11T23:55:35.625Z,6.22
2022-10-11T23:58:02.167Z,6.22
